createdAt,value
2023-06-19T00:02:11.079Z,71.90
2023-06-19T00:04:38.420Z,72.10
2023-06-19T00:07:05.934Z,72.30
2023-06-19T00:09:33.969Z,72.40
2023-06-19T00:12:02.482Z,72.50
2023-06-19T00:14:29.628Z,72.40
2023-06-19T00:16:57.377Z,72.40
2023-06-19T00:19:24.658Z,72.40
2023-06-19T00:21:51.717Z,72.40
2023-06-19T00:24:18.825Z,72.20
2023-06-19T00:26:45.956Z,72.30
2023-06-19T00:29:13.180Z,72.20
2023-06-19T00:31:40.328Z,72.00
2023-06-19T00:34:08.854Z,72.30
2023-06-19T00:36:41.466Z,72.10
2023-06-19T00:39:09.537Z,71.90
2023-06-19T00:41:37.514Z,72.50
2023-06-19T00:44:05.247Z,73.00
2023-06-19T00:46:32.747Z,73.10
2023-06-19T00:49:00.341Z,73.20
2023-06-19T00:51:27.541Z,73.20
2023-06-19T00:53:54.741Z,73.20
2023-06-19T00:56:24.803Z,73.20
2023-06-19T00:58:54.107Z,73.10
2023-06-19T01:01:24.874Z,73.30
2023-06-19T01:03:52.181Z,73.70
2023-06-19T01:06:26.329Z,73.80
2023-06-19T01:09:00.472Z,73.90
2023-06-19T01:11:34.884Z,73.80
2023-06-19T01:14:11.065Z,73.90
2023-06-19T01:16:40.047Z,74.40
2023-06-19T01:19:12.665Z,74.50
2023-06-19T01:21:41.149Z,74.40
2023-06-19T01:24:08.237Z,74.50
2023-06-19T01:26:35.768Z,74.60
2023-06-19T01:29:05.294Z,74.60
2023-06-19T01:32:00.970Z,74.80
2023-06-19T01:34:30.814Z,74.90
2023-06-19T01:36:58.420Z,75.10
2023-06-19T01:39:27.008Z,75.00
2023-06-19T01:41:55.765Z,74.90
2023-06-19T01:44:23.257Z,74.80
2023-06-19T01:46:51.826Z,75.00
2023-06-19T01:49:19.366Z,75.10
2023-06-19T01:51:47.205Z,75.00
2023-06-19T01:54:14.319Z,75.00
2023-06-19T01:56:41.537Z,75.10
2023-06-19T01:59:08.684Z,74.90
2023-06-19T02:01:37.017Z,74.90
2023-06-19T02:04:05.633Z,74.80
2023-06-19T02:06:32.912Z,74.70
2023-06-19T02:09:00.037Z,74.50
2023-06-19T02:11:27.263Z,74.80
2023-06-19T02:13:55.452Z,75.00
2023-06-19T02:16:22.675Z,75.10
2023-06-19T02:18:50.039Z,75.50
2023-06-19T02:21:17.262Z,75.30
2023-06-19T02:23:44.434Z,75.80
2023-06-19T02:26:11.555Z,76.00
2023-06-19T02:28:39.794Z,76.70
2023-06-19T02:31:06.936Z,77.20
2023-06-19T02:33:34.053Z,77.90
2023-06-19T02:36:01.329Z,78.20
2023-06-19T02:38:30.575Z,78.60
2023-06-19T02:41:03.796Z,79.20
2023-06-19T02:43:31.388Z,79.70
2023-06-19T02:45:58.593Z,79.80
2023-06-19T02:48:25.748Z,79.90
2023-06-19T02:50:52.848Z,80.10
2023-06-19T02:53:19.963Z,79.90
2023-06-19T02:55:47.099Z,79.60
2023-06-19T02:58:14.200Z,79.40
2023-06-19T03:00:41.366Z,79.90
2023-06-19T03:03:08.667Z,79.50
2023-06-19T03:05:36.107Z,79.40
2023-06-19T03:08:03.477Z,79.40
2023-06-19T03:10:31.684Z,79.50
2023-06-19T03:12:59.942Z,79.70
2023-06-19T03:15:27.649Z,80.00
2023-06-19T03:17:55.229Z,79.70
2023-06-19T03:20:24.684Z,79.10
2023-06-19T03:22:56.965Z,78.90
2023-06-19T03:25:25.625Z,78.90
2023-06-19T03:27:53.484Z,79.20
2023-06-19T03:30:20.655Z,79.40
2023-06-19T03:32:51.256Z,78.20
2023-06-19T03:35:41.872Z,78.00
2023-06-19T03:38:12.921Z,78.60
2023-06-19T03:40:40.539Z,78.40
2023-06-19T03:43:12.120Z,78.00
2023-06-19T03:45:39.855Z,77.70
2023-06-19T03:48:09.541Z,77.30
2023-06-19T03:50:36.963Z,77.10
2023-06-19T03:53:04.528Z,77.60
2023-06-19T03:55:31.715Z,77.40
2023-06-19T03:57:58.824Z,77.10
2023-06-19T04:00:26.360Z,76.80
2023-06-19T04:02:53.804Z,76.20
2023-06-19T04:05:21.075Z,76.90
2023-06-19T04:07:48.668Z,76.70
2023-06-19T04:10:16.110Z,76.70
2023-06-19T04:12:43.312Z,76.70
2023-06-19T04:15:11.163Z,75.80
2023-06-19T04:17:38.667Z,75.70
2023-06-19T04:20:12.201Z,75.70
2023-06-19T04:22:41.724Z,75.70
2023-06-19T04:25:11.879Z,75.70
2023-06-19T04:27:39.174Z,76.00
2023-06-19T04:30:10.450Z,76.00
2023-06-19T04:32:41.670Z,76.50
2023-06-19T04:35:10.545Z,76.60
2023-06-19T04:37:38.015Z,76.00
2023-06-19T04:40:06.218Z,76.60
2023-06-19T04:42:33.336Z,76.30
2023-06-19T04:45:01.160Z,76.00
2023-06-19T04:47:36.467Z,75.70
2023-06-19T04:50:11.422Z,76.20
2023-06-19T04:52:38.809Z,76.00
2023-06-19T04:55:12.629Z,76.00
2023-06-19T04:57:39.799Z,76.10
2023-06-19T05:00:08.417Z,76.10
2023-06-19T05:02:35.740Z,75.80
2023-06-19T05:05:03.672Z,75.10
2023-06-19T05:07:34.484Z,74.70
2023-06-19T05:10:01.627Z,75.40
2023-06-19T05:12:29.944Z,75.50
2023-06-19T05:14:57.178Z,75.30
2023-06-19T05:17:30.716Z,75.40
2023-06-19T05:19:58.277Z,75.00
2023-06-19T05:22:25.626Z,74.50
2023-06-19T05:24:53.079Z,74.70
2023-06-19T05:27:20.287Z,74.20
2023-06-19T05:29:48.901Z,73.60
2023-06-19T05:32:16.158Z,74.60
2023-06-19T05:34:50.283Z,73.60
2023-06-19T05:37:18.741Z,73.20
2023-06-19T05:39:48.592Z,72.80
2023-06-19T05:42:19.630Z,73.40
2023-06-19T05:44:58.687Z,73.20
2023-06-19T05:47:27.144Z,72.40
2023-06-19T05:50:07.091Z,72.50
2023-06-19T05:52:36.596Z,72.10
2023-06-19T05:55:04.192Z,73.30
2023-06-19T05:57:31.294Z,72.90
2023-06-19T05:59:58.417Z,72.80
2023-06-19T06:02:25.568Z,72.40
2023-06-19T06:04:52.873Z,72.40
2023-06-19T06:07:20.054Z,72.50
2023-06-19T06:09:47.380Z,72.30
2023-06-19T06:12:14.600Z,72.70
2023-06-19T06:14:44.774Z,73.00
2023-06-19T06:17:12.336Z,72.40
2023-06-19T06:19:40.103Z,72.00
2023-06-19T06:22:07.580Z,71.60
2023-06-19T06:24:34.826Z,71.10
2023-06-19T06:27:03.200Z,71.20
2023-06-19T06:29:30.350Z,70.50
2023-06-19T06:32:09.803Z,70.50
2023-06-19T06:34:37.245Z,70.70
2023-06-19T06:37:06.450Z,70.00
2023-06-19T06:39:36.681Z,71.10
2023-06-19T06:42:04.238Z,71.00
2023-06-19T06:44:31.417Z,71.60
2023-06-19T06:46:58.654Z,71.30
2023-06-19T06:49:28.660Z,70.20
2023-06-19T06:51:58.025Z,69.40
2023-06-19T06:54:25.964Z,69.60
2023-06-19T06:56:57.284Z,70.20
2023-06-19T06:59:30.594Z,69.50
2023-06-19T07:01:57.781Z,68.20
2023-06-19T07:04:25.222Z,67.70
2023-06-19T07:06:52.462Z,67.10
2023-06-19T07:09:20.171Z,67.60
2023-06-19T07:11:47.316Z,66.80
2023-06-19T07:14:14.483Z,68.90
2023-06-19T07:16:41.982Z,67.00
2023-06-19T07:19:09.135Z,67.40
2023-06-19T07:21:36.469Z,66.50
2023-06-19T07:24:04.197Z,66.50
2023-06-19T07:26:31.389Z,67.20
2023-06-19T07:28:58.610Z,65.40
2023-06-19T07:31:25.778Z,64.10
2023-06-19T07:33:53.038Z,65.20
2023-06-19T07:36:20.208Z,64.00
2023-06-19T07:38:47.580Z,64.30
2023-06-19T07:41:14.665Z,64.90
2023-06-19T07:43:41.873Z,63.20
2023-06-19T07:46:09.161Z,63.20
2023-06-19T07:48:36.360Z,63.50
2023-06-19T07:51:03.503Z,62.60
2023-06-19T07:53:30.685Z,63.30
2023-06-19T07:55:57.833Z,63.70
2023-06-19T07:58:24.963Z,63.50
2023-06-19T08:00:52.243Z,62.70
2023-06-19T08:03:19.554Z,63.30
2023-06-19T08:05:46.807Z,63.10
2023-06-19T08:08:15.423Z,61.80
2023-06-19T08:10:42.764Z,61.90
2023-06-19T08:13:12.321Z,61.10
2023-06-19T08:15:39.471Z,61.10
2023-06-19T08:18:06.641Z,61.60
2023-06-19T08:20:33.819Z,61.90
2023-06-19T08:23:00.984Z,61.60
2023-06-19T08:25:28.091Z,61.30
2023-06-19T08:27:55.202Z,62.10
2023-06-19T08:30:22.473Z,62.00
2023-06-19T08:32:49.768Z,61.60
2023-06-19T08:35:17.204Z,61.30
2023-06-19T08:37:45.687Z,59.30
2023-06-19T08:40:13.790Z,58.80
2023-06-19T08:42:41.256Z,60.50
2023-06-19T08:45:09.030Z,58.80
2023-06-19T08:47:38.476Z,58.90
2023-06-19T08:50:06.522Z,59.00
2023-06-19T08:52:33.647Z,60.10
2023-06-19T08:55:02.118Z,59.50
2023-06-19T08:57:55.691Z,59.00
2023-06-19T09:00:28.649Z,59.50
2023-06-19T09:03:14.212Z,58.80
2023-06-19T09:05:51.405Z,59.10
2023-06-19T09:08:20.633Z,59.10
2023-06-19T09:11:03.023Z,60.30
2023-06-19T09:13:31.612Z,59.70
2023-06-19T09:16:08.770Z,58.20
2023-06-19T09:18:49.664Z,60.20
2023-06-19T09:21:23.126Z,59.40
2023-06-19T09:23:52.768Z,60.10
2023-06-19T09:26:27.527Z,59.00
2023-06-19T09:28:54.748Z,58.20
2023-06-19T09:31:21.871Z,58.70
2023-06-19T09:33:49.095Z,59.50
2023-06-19T09:36:16.790Z,58.40
2023-06-19T09:38:43.955Z,58.00
2023-06-19T09:41:13.996Z,57.30
2023-06-19T09:43:45.079Z,57.20
2023-06-19T09:46:16.150Z,57.30
2023-06-19T09:48:47.314Z,55.30
2023-06-19T09:51:21.584Z,55.80
2023-06-19T09:53:53.323Z,57.10
2023-06-19T09:56:23.356Z,58.30
2023-06-19T09:58:54.106Z,57.30
2023-06-19T10:01:22.187Z,56.00
2023-06-19T10:03:49.543Z,56.60
2023-06-19T10:06:18.172Z,57.30
2023-06-19T10:08:46.569Z,56.80
2023-06-19T10:11:14.890Z,57.70
2023-06-19T10:13:43.251Z,55.80
2023-06-19T10:16:23.028Z,57.20
2023-06-19T10:18:50.481Z,58.40
2023-06-19T10:21:19.663Z,58.50
2023-06-19T10:24:03.358Z,57.40
2023-06-19T10:26:37.535Z,59.30
2023-06-19T10:29:18.864Z,56.30
2023-06-19T10:31:47.535Z,57.20
2023-06-19T10:34:14.637Z,55.00
2023-06-19T10:36:41.751Z,57.60
2023-06-19T10:39:10.124Z,54.80
2023-06-19T10:41:41.368Z,56.30
2023-06-19T10:44:15.874Z,56.70
2023-06-19T10:46:42.979Z,55.70
2023-06-19T10:49:12.502Z,54.50
2023-06-19T10:51:45.805Z,55.80
2023-06-19T10:54:12.921Z,55.60
2023-06-19T10:56:40.141Z,54.10
2023-06-19T10:59:10.508Z,53.80
2023-06-19T11:01:49.130Z,53.20
2023-06-19T11:04:17.010Z,53.50
2023-06-19T11:06:52.095Z,54.40
2023-06-19T11:09:20.678Z,52.90
2023-06-19T11:11:50.529Z,52.90
2023-06-19T11:14:18.666Z,52.90
2023-06-19T11:16:49.570Z,53.30
2023-06-19T11:19:21.100Z,53.00
2023-06-19T11:21:51.924Z,52.10
2023-06-19T11:24:21.399Z,52.60
2023-06-19T11:26:52.150Z,52.40
2023-06-19T11:29:33.586Z,51.20
2023-06-19T11:32:26.237Z,51.80
2023-06-19T11:34:54.917Z,49.70
2023-06-19T11:37:25.145Z,50.90
2023-06-19T11:39:53.434Z,51.00
2023-06-19T11:42:22.996Z,51.40
2023-06-19T11:44:58.635Z,51.50
2023-06-19T11:47:26.050Z,51.60
2023-06-19T11:49:53.376Z,49.80
2023-06-19T11:52:28.124Z,49.60
2023-06-19T11:54:57.757Z,46.00
2023-06-19T11:57:26.708Z,47.20
2023-06-19T11:59:53.959Z,46.20
2023-06-19T12:02:22.839Z,47.90
2023-06-19T12:04:56.367Z,48.30
2023-06-19T12:07:26.085Z,47.80
2023-06-19T12:10:06.603Z,47.90
2023-06-19T12:12:39.972Z,47.50
2023-06-19T12:15:08.371Z,47.00
2023-06-19T12:17:36.021Z,47.80
2023-06-19T12:20:08.259Z,45.60
2023-06-19T12:22:36.375Z,46.60
2023-06-19T12:25:06.616Z,46.30
2023-06-19T12:27:34.654Z,46.90
2023-06-19T12:30:02.038Z,45.50
2023-06-19T12:32:32.004Z,45.70
2023-06-19T12:35:01.855Z,45.00
2023-06-19T12:37:59.696Z,44.70
2023-06-19T12:40:27.608Z,45.00
2023-06-19T12:42:55.432Z,44.10
2023-06-19T12:45:39.357Z,43.40
2023-06-19T12:48:08.686Z,44.30
2023-06-19T12:50:45.704Z,44.60
2023-06-19T12:53:15.747Z,44.50
2023-06-19T12:56:00.036Z,47.40
2023-06-19T12:58:54.425Z,47.50
2023-06-19T13:01:22.903Z,45.70
2023-06-19T13:03:50.291Z,45.40
2023-06-19T13:06:20.040Z,45.40
2023-06-19T13:08:48.697Z,44.70
2023-06-19T13:11:16.088Z,47.00
2023-06-19T13:13:43.399Z,47.50
2023-06-19T13:16:13.032Z,45.60
2023-06-19T13:18:41.921Z,44.70
2023-06-19T13:21:09.369Z,44.10
2023-06-19T13:23:36.975Z,44.30
2023-06-19T13:26:04.238Z,44.60
2023-06-19T13:28:31.475Z,46.50
2023-06-19T13:31:00.243Z,45.70
2023-06-19T13:33:27.620Z,46.60
2023-06-19T13:35:59.717Z,44.70
2023-06-19T13:38:29.558Z,44.80
2023-06-19T13:40:56.900Z,45.00
2023-06-19T13:43:27.168Z,46.00
2023-06-19T13:45:54.391Z,45.00
2023-06-19T13:48:21.683Z,44.40
2023-06-19T13:50:48.934Z,46.10
2023-06-19T13:53:16.499Z,45.10
2023-06-19T13:55:43.872Z,45.50
2023-06-19T13:58:11.054Z,43.40
2023-06-19T14:00:39.831Z,44.50
2023-06-19T14:03:08.399Z,43.40
2023-06-19T14:05:37.998Z,43.80
2023-06-19T14:08:20.272Z,44.10
2023-06-19T14:10:47.660Z,44.90
2023-06-19T14:13:17.640Z,44.20
2023-06-19T14:15:46.405Z,44.00
2023-06-19T14:18:16.256Z,42.90
2023-06-19T14:20:43.560Z,43.80
2023-06-19T14:23:12.028Z,43.70
2023-06-19T14:25:41.117Z,43.70
2023-06-19T14:28:09.933Z,41.80
2023-06-19T14:30:37.198Z,42.70
2023-06-19T14:33:21.623Z,42.10
2023-06-19T14:35:50.274Z,43.60
2023-06-19T14:38:21.834Z,44.30
2023-06-19T14:40:57.990Z,43.60
2023-06-19T14:43:26.044Z,42.10
2023-06-19T14:45:56.561Z,42.40
2023-06-19T14:48:37.844Z,42.50
2023-06-19T14:51:05.742Z,42.00
2023-06-19T14:53:36.335Z,42.80
2023-06-19T14:56:03.677Z,43.20
2023-06-19T14:58:33.491Z,44.00
2023-06-19T15:01:01.092Z,43.50
2023-06-19T15:03:29.803Z,44.00
2023-06-19T15:06:05.744Z,43.70
2023-06-19T15:08:41.442Z,42.40
2023-06-19T15:11:13.607Z,41.10
2023-06-19T15:13:54.196Z,41.10
2023-06-19T15:16:26.707Z,41.10
2023-06-19T15:18:55.499Z,41.40
2023-06-19T15:21:25.029Z,41.50
2023-06-19T15:23:58.822Z,42.30
2023-06-19T15:26:39.823Z,43.10
2023-06-19T15:29:14.961Z,41.80
2023-06-19T15:31:45.732Z,41.80
2023-06-19T15:34:13.173Z,41.40
2023-06-19T15:36:40.317Z,43.00
2023-06-19T15:39:07.463Z,43.30
2023-06-19T15:41:34.998Z,44.10
2023-06-19T15:44:07.304Z,43.70
2023-06-19T15:46:37.148Z,43.80
2023-06-19T15:49:09.066Z,44.90
2023-06-19T15:51:37.976Z,44.00
2023-06-19T15:54:05.466Z,43.90
2023-06-19T15:56:33.874Z,44.10
2023-06-19T15:59:04.753Z,43.10
2023-06-19T16:01:31.988Z,43.30
2023-06-19T16:03:59.849Z,43.30
2023-06-19T16:06:27.234Z,43.50
2023-06-19T16:08:57.687Z,42.30
2023-06-19T16:11:25.215Z,42.60
2023-06-19T16:13:52.356Z,43.40
2023-06-19T16:16:19.570Z,43.80
2023-06-19T16:18:46.687Z,43.90
2023-06-19T16:21:14.158Z,43.50
2023-06-19T16:23:41.883Z,43.40
2023-06-19T16:26:09.044Z,43.90
2023-06-19T16:28:36.276Z,43.30
2023-06-19T16:31:03.658Z,45.30
2023-06-19T16:33:30.845Z,44.60
2023-06-19T16:35:58.019Z,44.30
2023-06-19T16:38:25.083Z,45.30
2023-06-19T16:40:52.158Z,44.40
2023-06-19T16:43:19.256Z,44.40
2023-06-19T16:45:46.373Z,43.50
2023-06-19T16:48:13.504Z,43.10
2023-06-19T16:50:40.911Z,42.60
2023-06-19T16:53:08.005Z,42.20
2023-06-19T16:55:35.268Z,42.80
2023-06-19T16:58:02.572Z,42.30
2023-06-19T17:00:29.700Z,43.00
2023-06-19T17:02:58.130Z,42.70
2023-06-19T17:05:27.699Z,43.70
2023-06-19T17:07:55.002Z,43.20
2023-06-19T17:10:24.102Z,43.40
2023-06-19T17:12:52.154Z,43.20
2023-06-19T17:15:19.402Z,43.00
2023-06-19T17:17:46.762Z,41.60
2023-06-19T17:20:14.702Z,41.40
2023-06-19T17:22:44.109Z,41.40
2023-06-19T17:25:11.306Z,42.20
2023-06-19T17:27:38.534Z,42.10
2023-06-19T17:30:09.227Z,40.80
2023-06-19T17:32:36.654Z,42.40
2023-06-19T17:35:05.653Z,43.00
2023-06-19T17:37:33.191Z,41.60
2023-06-19T17:40:09.728Z,42.70
2023-06-19T17:42:41.602Z,43.30
2023-06-19T17:45:17.030Z,43.90
2023-06-19T17:47:50.026Z,43.60
2023-06-19T17:53:20.802Z,43.70
2023-06-19T17:53:40.775Z,44.20
2023-06-19T17:56:26.961Z,43.90
2023-06-19T17:59:01.603Z,43.80
2023-06-19T18:01:28.918Z,44.30
2023-06-19T18:04:05.191Z,45.30
2023-06-19T18:06:34.564Z,41.60
2023-06-19T18:09:03.936Z,42.00
2023-06-19T18:11:32.723Z,42.60
2023-06-19T18:13:59.771Z,42.10
2023-06-19T18:16:28.283Z,43.50
2023-06-19T18:18:55.586Z,42.20
2023-06-19T18:21:23.974Z,43.10
2023-06-19T18:23:51.154Z,43.00
2023-06-19T18:26:18.467Z,43.10
2023-06-19T18:28:45.685Z,43.80
2023-06-19T18:31:12.779Z,43.70
2023-06-19T18:33:39.841Z,43.30
2023-06-19T18:36:07.197Z,42.70
2023-06-19T18:38:34.336Z,42.90
2023-06-19T18:41:01.619Z,43.70
2023-06-19T18:43:28.811Z,44.00
2023-06-19T18:45:56.480Z,44.90
2023-06-19T18:48:23.776Z,45.20
2023-06-19T18:50:50.989Z,46.60
2023-06-19T18:53:18.184Z,44.60
2023-06-19T18:55:45.614Z,44.60
2023-06-19T18:58:13.775Z,45.00
2023-06-19T19:00:41.010Z,46.50
2023-06-19T19:03:08.900Z,47.60
2023-06-19T19:05:37.092Z,47.80
2023-06-19T19:08:04.608Z,48.40
2023-06-19T19:10:31.814Z,48.40
2023-06-19T19:12:58.923Z,48.60
2023-06-19T19:15:26.294Z,48.70
2023-06-19T19:17:55.911Z,48.40
2023-06-19T19:20:23.286Z,48.90
2023-06-19T19:22:50.789Z,49.70
2023-06-19T19:25:18.095Z,50.10
2023-06-19T19:27:45.334Z,50.60
2023-06-19T19:30:13.233Z,51.00
2023-06-19T19:32:40.917Z,51.90
2023-06-19T19:35:09.310Z,51.90
2023-06-19T19:37:36.897Z,51.80
2023-06-19T19:40:05.142Z,52.50
2023-06-19T19:42:33.062Z,53.70
2023-06-19T19:45:00.698Z,52.60
2023-06-19T19:47:29.077Z,53.00
2023-06-19T19:49:56.350Z,53.50
2023-06-19T19:52:25.438Z,53.80
2023-06-19T19:54:52.955Z,53.30
2023-06-19T19:57:20.862Z,53.60
2023-06-19T19:59:48.087Z,53.60
2023-06-19T20:02:18.510Z,53.40
2023-06-19T20:04:46.011Z,53.80
2023-06-19T20:07:13.151Z,54.80
2023-06-19T20:09:40.443Z,55.10
2023-06-19T20:12:20.505Z,56.20
2023-06-19T20:14:51.333Z,57.80
2023-06-19T20:17:18.549Z,58.10
2023-06-19T20:19:45.664Z,57.90
2023-06-19T20:22:13.119Z,58.20
2023-06-19T20:24:40.261Z,58.60
2023-06-19T20:27:07.835Z,59.00
2023-06-19T20:29:35.068Z,59.20
2023-06-19T20:32:02.262Z,58.20
2023-06-19T20:34:29.710Z,58.30
2023-06-19T20:36:57.678Z,58.70
2023-06-19T20:39:24.845Z,59.10
2023-06-19T20:41:52.060Z,59.00
2023-06-19T20:44:19.390Z,59.30
2023-06-19T20:46:46.498Z,59.60
2023-06-19T20:49:13.589Z,59.70
2023-06-19T20:51:42.136Z,59.60
2023-06-19T20:54:09.309Z,60.00
2023-06-19T20:56:36.404Z,60.10
2023-06-19T20:59:03.606Z,60.70
2023-06-19T21:01:31.088Z,61.50
2023-06-19T21:04:02.941Z,61.10
2023-06-19T21:06:30.863Z,61.30
2023-06-19T21:09:00.695Z,61.50
2023-06-19T21:11:28.133Z,61.20
2023-06-19T21:13:55.457Z,61.00
2023-06-19T21:16:22.632Z,61.00
2023-06-19T21:18:49.988Z,60.90
2023-06-19T21:21:17.202Z,60.90
2023-06-19T21:23:44.305Z,60.50
2023-06-19T21:26:11.512Z,60.40
2023-06-19T21:28:38.768Z,60.40
2023-06-19T21:31:05.954Z,60.90
2023-06-19T21:33:33.727Z,60.70
2023-06-19T21:36:01.091Z,60.50
2023-06-19T21:38:31.017Z,60.60
2023-06-19T21:40:58.378Z,60.90
2023-06-19T21:43:25.550Z,61.10
2023-06-19T21:45:52.928Z,61.80
2023-06-19T21:48:20.105Z,61.90
2023-06-19T21:50:47.373Z,62.20
2023-06-19T21:53:14.640Z,61.90
2023-06-19T21:55:41.730Z,61.80
2023-06-19T21:58:08.922Z,62.10
2023-06-19T22:00:36.172Z,62.10
2023-06-19T22:03:03.646Z,61.60
2023-06-19T22:05:30.916Z,61.50
2023-06-19T22:07:58.066Z,61.80
2023-06-19T22:10:25.483Z,62.40
2023-06-19T22:12:53.161Z,62.10
2023-06-19T22:15:20.267Z,62.70
2023-06-19T22:17:47.611Z,62.30
2023-06-19T22:20:17.909Z,62.20
2023-06-19T22:22:49.332Z,62.10
2023-06-19T22:25:17.043Z,62.50
2023-06-19T22:27:46.211Z,62.90
2023-06-19T22:30:15.817Z,63.20
2023-06-19T22:32:43.584Z,63.30
2023-06-19T22:35:10.761Z,63.30
2023-06-19T22:37:38.752Z,63.00
2023-06-19T22:40:08.491Z,63.30
2023-06-19T22:42:38.907Z,62.60
2023-06-19T22:45:08.087Z,61.90
2023-06-19T22:47:39.533Z,61.80
2023-06-19T22:50:08.914Z,61.30
2023-06-19T22:52:36.807Z,62.00
2023-06-19T22:55:05.092Z,61.90
2023-06-19T22:57:38.435Z,62.00
2023-06-19T23:00:14.716Z,62.00
2023-06-19T23:02:44.976Z,61.80
2023-06-19T23:05:13.578Z,61.90
2023-06-19T23:07:42.273Z,62.10
2023-06-19T23:10:09.925Z,62.70
2023-06-19T23:12:38.078Z,62.70
2023-06-19T23:15:08.015Z,62.90
2023-06-19T23:17:35.518Z,62.70
2023-06-19T23:20:06.036Z,62.70
2023-06-19T23:22:33.141Z,62.70
2023-06-19T23:25:01.352Z,62.80
2023-06-19T23:27:28.585Z,63.00
2023-06-19T23:29:55.715Z,63.10
2023-06-19T23:32:23.162Z,63.10
2023-06-19T23:34:50.422Z,63.70
2023-06-19T23:37:17.863Z,63.20
2023-06-19T23:39:45.036Z,63.00
2023-06-19T23:42:13.018Z,63.60
2023-06-19T23:44:40.250Z,62.80
2023-06-19T23:47:08.769Z,62.30
2023-06-19T23:49:38.949Z,62.70
2023-06-19T23:52:07.041Z,62.40
2023-06-19T23:54:34.209Z,63.00
2023-06-19T23:57:01.308Z,63.50
2023-06-19T23:59:28.476Z,63.30
